createdAt,value
2022-08-20T00:01:01.971Z,4.65
2022-08-20T00:03:33.542Z,3.88
2022-08-20T00:06:01.929Z,3.15
2022-08-20T00:08:29.337Z,3.20
2022-08-20T00:10:56.635Z,2.67
2022-08-20T00:13:24.761Z,3.17
2022-08-20T00:15:51.594Z,3.97
2022-08-20T00:18:18.343Z,7.05
2022-08-20T00:20:46.398Z,6.47
2022-08-20T00:23:13.346Z,6.47
2022-08-20T00:25:39.921Z,9.85
2022-08-20T00:28:07.420Z,9.93
2022-08-20T00:30:35.259Z,11.43
2022-08-20T00:33:05.384Z,12.02
2022-08-20T00:35:32.861Z,10.10
2022-08-20T00:38:00.842Z,9.57
2022-08-20T00:40:34.980Z,12.05
2022-08-20T00:43:03.488Z,14.65
2022-08-20T00:45:32.159Z,15.13
2022-08-20T00:47:58.942Z,16.73
2022-08-20T00:50:43.676Z,18.38
2022-08-20T00:53:10.201Z,18.00
2022-08-20T00:55:36.930Z,14.90
2022-08-20T00:58:08.480Z,17.77
2022-08-20T01:00:40.409Z,22.42
2022-08-20T01:03:11.332Z,19.58
2022-08-20T01:05:39.117Z,20.60
2022-08-20T01:08:06.074Z,24.52
2022-08-20T01:10:34.984Z,20.30
2022-08-20T01:13:04.060Z,41.22
2022-08-20T01:15:31.895Z,21.92
2022-08-20T01:17:59.554Z,31.20
2022-08-20T01:20:28.327Z,32.88
2022-08-20T01:23:24.662Z,23.20
2022-08-20T01:25:53.585Z,31.58
2022-08-20T01:28:23.062Z,23.55
2022-08-20T01:30:49.656Z,27.77
2022-08-20T01:33:17.352Z,70.95
2022-08-20T01:35:44.528Z,70.05
2022-08-20T01:38:11.531Z,30.35
2022-08-20T01:40:51.860Z,32.20
2022-08-20T01:43:18.554Z,46.72
2022-08-20T01:45:48.706Z,46.58
2022-08-20T01:48:18.006Z,35.67
2022-08-20T01:50:50.118Z,30.83
2022-08-20T01:53:18.478Z,28.63
2022-08-20T01:55:45.015Z,51.05
2022-08-20T01:58:11.677Z,44.80
2022-08-20T02:00:38.303Z,29.23
2022-08-20T02:03:05.225Z,33.92
2022-08-20T02:05:32.564Z,39.00
2022-08-20T02:07:59.624Z,49.90
2022-08-20T02:10:26.194Z,68.97
2022-08-20T02:12:53.040Z,56.42
2022-08-20T02:15:34.979Z,25.15
2022-08-20T02:18:05.699Z,29.70
2022-08-20T02:20:34.911Z,39.10
2022-08-20T02:23:01.469Z,28.77
2022-08-20T02:25:29.711Z,46.00
2022-08-20T02:28:00.583Z,28.70
2022-08-20T02:30:29.378Z,25.63
2022-08-20T02:32:57.109Z,57.42
2022-08-20T02:35:24.598Z,39.53
2022-08-20T02:37:52.681Z,31.45
2022-08-20T02:40:26.965Z,45.38
2022-08-20T02:42:57.156Z,40.42
2022-08-20T02:45:23.688Z,29.17
2022-08-20T02:47:52.561Z,47.20
2022-08-20T02:50:20.718Z,37.75
2022-08-20T02:52:51.793Z,31.30
2022-08-20T02:55:27.995Z,32.35
2022-08-20T02:57:57.941Z,34.08
2022-08-20T03:00:26.115Z,31.38
2022-08-20T03:02:52.646Z,34.10
2022-08-20T03:05:19.298Z,36.25
2022-08-20T03:07:47.258Z,33.25
2022-08-20T03:10:14.698Z,51.38
2022-08-20T03:12:41.908Z,37.00
2022-08-20T03:15:17.509Z,71.53
2022-08-20T03:17:44.845Z,35.15
2022-08-20T03:20:12.222Z,49.13
2022-08-20T03:22:38.764Z,33.80
2022-08-20T03:25:06.040Z,37.53
2022-08-20T03:27:36.537Z,53.72
2022-08-20T03:30:05.619Z,69.05
2022-08-20T03:32:32.181Z,46.53
2022-08-20T03:34:58.721Z,33.85
2022-08-20T03:37:25.379Z,32.47
2022-08-20T03:39:52.158Z,32.13
2022-08-20T03:42:18.710Z,40.65
2022-08-20T03:44:45.376Z,29.05
2022-08-20T03:47:12.017Z,32.13
2022-08-20T03:49:38.547Z,33.25
2022-08-20T03:52:06.207Z,40.90
2022-08-20T03:54:32.834Z,37.92
2022-08-20T03:57:00.744Z,30.38
2022-08-20T03:59:27.324Z,30.27
2022-08-20T04:01:54.672Z,41.25
2022-08-20T04:04:22.117Z,26.40
2022-08-20T04:06:48.639Z,44.95
2022-08-20T04:09:15.406Z,53.67
2022-08-20T04:11:42.314Z,29.50
2022-08-20T04:14:11.044Z,47.72
2022-08-20T04:16:39.411Z,50.70
2022-08-20T04:19:06.225Z,39.33
2022-08-20T04:21:33.660Z,30.73
2022-08-20T04:24:00.803Z,50.33
2022-08-20T04:26:27.446Z,34.45
2022-08-20T04:28:55.521Z,31.05
2022-08-20T04:31:25.337Z,41.35
2022-08-20T04:33:52.628Z,43.38
2022-08-20T04:36:19.313Z,48.80
2022-08-20T04:38:48.393Z,36.70
2022-08-20T04:41:23.071Z,76.32
2022-08-20T04:43:50.907Z,38.97
2022-08-20T04:46:17.467Z,42.00
2022-08-20T04:48:49.124Z,58.00
2022-08-20T04:51:16.781Z,71.45
2022-08-20T04:53:44.581Z,85.75
2022-08-20T04:56:23.383Z,147.80
2022-08-20T04:58:51.172Z,111.15
2022-08-20T05:01:17.793Z,49.75
2022-08-20T05:03:45.967Z,77.82
2022-08-20T05:06:12.652Z,181.63
2022-08-20T05:08:39.304Z,55.80
2022-08-20T05:11:34.807Z,50.40
2022-08-20T05:13:53.590Z,47.53
2022-08-20T05:16:20.224Z,157.15
2022-08-20T05:18:52.240Z,50.83
2022-08-20T05:21:20.077Z,52.63
2022-08-20T05:23:46.653Z,68.65
2022-08-20T05:26:15.857Z,46.80
2022-08-20T05:28:53.969Z,59.67
2022-08-20T05:31:31.285Z,90.50
2022-08-20T05:34:10.273Z,116.00
2022-08-20T05:36:40.720Z,156.80
2022-08-20T05:39:08.815Z,125.70
2022-08-20T05:41:36.300Z,100.88
2022-08-20T05:44:03.525Z,160.70
2022-08-20T05:46:31.509Z,74.72
2022-08-20T05:48:59.758Z,109.50
2022-08-20T05:51:27.374Z,37.88
2022-08-20T05:53:53.946Z,76.18
2022-08-20T05:56:26.619Z,44.40
2022-08-20T05:58:53.867Z,39.42
2022-08-20T06:01:20.427Z,83.13
2022-08-20T06:04:05.798Z,51.03
2022-08-20T06:06:45.666Z,43.47
2022-08-20T06:09:14.872Z,42.42
2022-08-20T06:11:41.399Z,29.10
2022-08-20T06:14:07.970Z,38.05
2022-08-20T06:16:34.565Z,28.08
2022-08-20T06:19:04.603Z,53.00
2022-08-20T06:21:35.099Z,21.05
2022-08-20T06:24:04.554Z,113.57
2022-08-20T06:26:32.737Z,55.10
2022-08-20T06:28:59.777Z,61.05
2022-08-20T06:31:29.236Z,128.82
2022-08-20T06:33:58.375Z,112.10
2022-08-20T06:36:27.503Z,63.42
2022-08-20T06:38:56.216Z,98.00
2022-08-20T06:41:22.900Z,138.52
2022-08-20T06:44:02.762Z,204.60
2022-08-20T06:46:29.955Z,195.90
2022-08-20T06:48:56.484Z,219.85
2022-08-20T06:51:23.842Z,246.57
2022-08-20T06:53:50.586Z,230.68
2022-08-20T06:56:17.891Z,239.18
2022-08-20T06:58:44.671Z,228.43
2022-08-20T07:01:12.149Z,159.88
2022-08-20T07:03:39.813Z,308.92
2022-08-20T07:06:11.211Z,194.77
2022-08-20T07:08:38.384Z,205.85
2022-08-20T07:11:06.971Z,208.23
2022-08-20T07:13:36.577Z,219.07
2022-08-20T07:16:06.546Z,234.57
2022-08-20T07:18:33.471Z,305.27
2022-08-20T07:21:00.300Z,118.80
2022-08-20T07:23:26.892Z,113.38
2022-08-20T07:25:53.883Z,243.18
2022-08-20T07:28:22.032Z,263.27
2022-08-20T07:31:13.556Z,177.52
2022-08-20T07:33:42.725Z,303.92
2022-08-20T07:36:12.176Z,229.93
2022-08-20T07:38:39.116Z,166.55
2022-08-20T07:41:07.703Z,133.07
2022-08-20T07:43:34.839Z,171.32
2022-08-20T07:46:02.835Z,131.20
2022-08-20T07:48:31.790Z,128.85
2022-08-20T07:51:00.009Z,74.55
2022-08-20T07:53:26.984Z,184.23
2022-08-20T07:55:58.991Z,160.10
2022-08-20T07:58:33.279Z,134.65
2022-08-20T08:01:00.453Z,147.93
2022-08-20T08:03:40.889Z,137.63
2022-08-20T08:06:17.010Z,114.82
2022-08-20T08:08:54.872Z,108.95
2022-08-20T08:11:21.499Z,136.07
2022-08-20T08:13:48.223Z,94.72
2022-08-20T08:16:15.167Z,96.50
2022-08-20T08:18:50.308Z,100.95
2022-08-20T08:21:22.452Z,118.00
2022-08-20T08:23:50.159Z,134.43
2022-08-20T08:26:19.045Z,94.00
2022-08-20T08:28:45.877Z,80.65
2022-08-20T08:31:12.777Z,73.90
2022-08-20T08:33:40.660Z,88.35
2022-08-20T08:36:09.768Z,108.38
2022-08-20T08:38:37.976Z,88.35
2022-08-20T08:41:13.933Z,104.10
2022-08-20T08:43:40.889Z,90.47
2022-08-20T08:46:09.712Z,99.07
2022-08-20T08:48:37.865Z,77.28
2022-08-20T08:51:11.875Z,64.55
2022-08-20T08:53:51.077Z,64.43
2022-08-20T08:56:17.658Z,68.07
2022-08-20T08:58:45.139Z,70.53
2022-08-20T09:01:13.945Z,55.45
2022-08-20T09:04:02.730Z,89.88
2022-08-20T09:06:29.321Z,79.18
2022-08-20T09:08:58.072Z,132.02
2022-08-20T09:11:25.475Z,66.68
2022-08-20T09:13:54.350Z,78.20
2022-08-20T09:16:22.981Z,78.72
2022-08-20T09:18:50.158Z,52.40
2022-08-20T09:21:17.206Z,77.95
2022-08-20T09:23:44.287Z,51.78
2022-08-20T09:26:11.195Z,48.65
2022-08-20T09:28:37.977Z,59.00
2022-08-20T09:31:05.013Z,61.95
2022-08-20T09:33:33.580Z,57.30
2022-08-20T09:36:00.233Z,76.30
2022-08-20T09:38:26.957Z,68.78
2022-08-20T09:40:53.628Z,88.20
2022-08-20T09:43:22.021Z,71.07
2022-08-20T09:45:48.585Z,69.43
2022-08-20T09:48:15.611Z,51.67
2022-08-20T09:50:44.738Z,68.20
2022-08-20T09:53:11.755Z,42.75
2022-08-20T09:55:45.402Z,57.80
2022-08-20T09:58:19.759Z,55.28
2022-08-20T10:00:46.447Z,54.83
2022-08-20T10:03:13.200Z,55.90
2022-08-20T10:05:39.837Z,58.17
2022-08-20T10:08:07.140Z,59.13
2022-08-20T10:10:33.694Z,57.95
2022-08-20T10:13:00.327Z,75.30
2022-08-20T10:15:26.929Z,52.40
2022-08-20T10:17:53.524Z,62.78
2022-08-20T10:20:20.435Z,59.13
2022-08-20T10:22:47.245Z,67.60
2022-08-20T10:25:13.957Z,69.30
2022-08-20T10:27:40.547Z,60.25
2022-08-20T10:30:07.813Z,55.58
2022-08-20T10:32:34.479Z,68.60
2022-08-20T10:35:01.332Z,51.42
2022-08-20T10:37:27.924Z,49.75
2022-08-20T10:39:54.634Z,60.65
2022-08-20T10:42:21.531Z,54.67
2022-08-20T10:44:48.063Z,52.63
2022-08-20T10:47:22.590Z,58.33
2022-08-20T10:49:50.354Z,64.55
2022-08-20T10:52:16.966Z,56.67
2022-08-20T10:54:44.011Z,54.17
2022-08-20T10:57:14.295Z,48.00
2022-08-20T10:59:42.508Z,51.75
2022-08-20T11:02:11.416Z,51.50
2022-08-20T11:04:38.210Z,43.38
2022-08-20T11:07:14.278Z,50.15
2022-08-20T11:09:41.387Z,44.30
2022-08-20T11:12:08.127Z,33.58
2022-08-20T11:14:34.681Z,37.83
2022-08-20T11:17:01.758Z,31.77
2022-08-20T11:19:28.837Z,48.28
2022-08-20T11:21:55.414Z,50.38
2022-08-20T11:24:22.036Z,51.72
2022-08-20T11:26:49.165Z,51.03
2022-08-20T11:29:17.220Z,54.55
2022-08-20T11:31:43.726Z,39.80
2022-08-20T11:34:12.751Z,46.50
2022-08-20T11:36:39.608Z,43.47
2022-08-20T11:39:06.138Z,32.13
2022-08-20T11:41:32.640Z,39.22
2022-08-20T11:44:20.145Z,42.28
2022-08-20T11:46:45.597Z,37.70
2022-08-20T11:49:12.184Z,33.42
2022-08-20T11:51:49.152Z,24.23
2022-08-20T11:54:15.856Z,27.08
2022-08-20T11:56:42.506Z,23.05
2022-08-20T11:59:13.488Z,24.40
2022-08-20T12:01:40.006Z,22.92
2022-08-20T12:04:07.338Z,28.15
2022-08-20T12:06:34.038Z,24.40
2022-08-20T12:09:01.176Z,26.83
2022-08-20T12:11:27.761Z,21.60
2022-08-20T12:13:57.659Z,19.70
2022-08-20T12:16:24.305Z,26.40
2022-08-20T12:18:51.420Z,23.67
2022-08-20T12:21:18.270Z,22.38
2022-08-20T12:23:48.135Z,20.60
2022-08-20T12:26:16.688Z,17.58
2022-08-20T12:28:44.559Z,18.42
2022-08-20T12:31:11.199Z,16.00
2022-08-20T12:33:39.256Z,15.48
2022-08-20T12:36:06.062Z,16.42
2022-08-20T12:38:34.615Z,17.65
2022-08-20T12:41:03.547Z,16.83
2022-08-20T12:43:30.259Z,13.90
2022-08-20T12:45:56.886Z,14.30
2022-08-20T12:48:23.397Z,16.58
2022-08-20T12:50:52.172Z,14.60
2022-08-20T12:53:19.012Z,14.40
2022-08-20T12:55:46.206Z,15.38
2022-08-20T12:58:13.294Z,15.43
2022-08-20T13:00:43.393Z,14.90
2022-08-20T13:03:11.366Z,14.85
2022-08-20T13:05:38.568Z,13.38
2022-08-20T13:08:09.032Z,15.02
2022-08-20T13:10:42.406Z,14.00
2022-08-20T13:13:09.068Z,10.70
2022-08-20T13:15:35.628Z,13.57
2022-08-20T13:18:03.247Z,15.73
2022-08-20T13:20:34.024Z,10.52
2022-08-20T13:23:01.312Z,16.50
2022-08-20T13:25:28.049Z,11.07
2022-08-20T13:27:57.083Z,15.35
2022-08-20T13:30:24.344Z,10.77
2022-08-20T13:32:51.577Z,7.80
2022-08-20T13:35:20.150Z,11.93
2022-08-20T13:37:47.994Z,9.23
2022-08-20T13:40:14.751Z,8.63
2022-08-20T13:42:41.403Z,11.68
2022-08-20T13:45:09.012Z,10.88
2022-08-20T13:47:37.076Z,10.90
2022-08-20T13:50:06.710Z,13.43
2022-08-20T13:52:35.895Z,10.95
2022-08-20T13:55:06.480Z,8.57
2022-08-20T13:57:34.061Z,9.95
2022-08-20T14:00:00.773Z,8.88
2022-08-20T14:02:27.665Z,8.73
2022-08-20T14:04:54.333Z,9.65
2022-08-20T14:07:22.475Z,8.93
2022-08-20T14:09:50.645Z,8.32
2022-08-20T14:12:17.167Z,8.85
2022-08-20T14:14:44.001Z,9.82
2022-08-20T14:17:16.849Z,9.63
2022-08-20T14:19:44.241Z,8.40
2022-08-20T14:22:10.943Z,8.60
2022-08-20T14:24:37.505Z,5.95
2022-08-20T14:27:06.027Z,12.23
2022-08-20T14:29:33.449Z,8.27
2022-08-20T14:32:03.764Z,7.70
2022-08-20T14:34:30.319Z,8.93
2022-08-20T14:36:56.965Z,8.18
2022-08-20T14:39:25.278Z,7.72
2022-08-20T14:41:51.809Z,8.05
2022-08-20T14:44:18.614Z,9.77
2022-08-20T14:46:45.098Z,10.75
2022-08-20T14:49:11.642Z,7.38
2022-08-20T14:51:40.937Z,9.30
2022-08-20T14:54:07.551Z,8.88
2022-08-20T14:56:34.353Z,6.85
2022-08-20T14:59:01.026Z,6.93
2022-08-20T15:01:27.700Z,6.45
2022-08-20T15:03:54.399Z,8.05
2022-08-20T15:06:22.175Z,9.35
2022-08-20T15:08:49.935Z,8.23
2022-08-20T15:11:16.441Z,7.57
2022-08-20T15:13:43.028Z,7.10
2022-08-20T15:16:09.576Z,9.50
2022-08-20T15:18:36.107Z,7.78
2022-08-20T15:21:04.020Z,7.45
2022-08-20T15:23:36.829Z,9.15
2022-08-20T15:26:03.731Z,6.35
2022-08-20T15:28:31.716Z,7.95
2022-08-20T15:30:59.274Z,6.30
2022-08-20T15:33:27.222Z,7.55
2022-08-20T15:35:53.819Z,9.60
2022-08-20T15:38:20.376Z,7.43
2022-08-20T15:40:46.934Z,7.72
2022-08-20T15:43:13.671Z,7.78
2022-08-20T15:45:40.241Z,12.43
2022-08-20T15:48:12.502Z,6.20
2022-08-20T15:50:48.297Z,11.38
2022-08-20T15:53:27.932Z,9.18
2022-08-20T15:56:03.212Z,8.88
2022-08-20T15:58:39.596Z,8.45
2022-08-20T16:01:26.566Z,8.30
2022-08-20T16:03:53.099Z,10.45
2022-08-20T16:06:22.377Z,8.75
2022-08-20T16:09:03.381Z,7.32
2022-08-20T16:11:41.760Z,10.77
2022-08-20T16:14:17.046Z,8.32
2022-08-20T16:16:46.111Z,9.88
2022-08-20T16:19:18.494Z,7.30
2022-08-20T16:21:46.547Z,9.85
2022-08-20T16:24:13.870Z,6.38
2022-08-20T16:26:52.341Z,7.75
2022-08-20T16:29:26.376Z,7.53
2022-08-20T16:32:11.932Z,5.93
2022-08-20T16:34:41.630Z,6.30
2022-08-20T16:37:21.186Z,9.95
2022-08-20T16:40:16.032Z,7.85
2022-08-20T16:42:45.678Z,5.15
2022-08-20T16:45:29.634Z,7.45
2022-08-20T16:48:01.063Z,7.82
2022-08-20T16:50:50.959Z,7.22
2022-08-20T16:53:23.242Z,8.77
2022-08-20T16:55:50.423Z,10.02
2022-08-20T16:58:18.388Z,7.75
2022-08-20T17:00:45.751Z,10.88
2022-08-20T17:03:21.548Z,9.45
2022-08-20T17:06:00.814Z,7.43
2022-08-20T17:08:32.829Z,7.57
2022-08-20T17:11:01.550Z,8.20
2022-08-20T17:13:30.660Z,9.43
2022-08-20T17:15:59.091Z,7.88
2022-08-20T17:18:27.850Z,8.10
2022-08-20T17:21:02.292Z,12.35
2022-08-20T17:23:30.676Z,8.30
2022-08-20T17:25:59.204Z,10.70
2022-08-20T17:28:35.282Z,8.48
2022-08-20T17:31:02.217Z,9.13
2022-08-20T17:33:33.833Z,8.73
2022-08-20T17:36:08.315Z,9.25
2022-08-20T17:38:38.043Z,7.68
2022-08-20T17:41:17.199Z,8.65
2022-08-20T17:43:44.882Z,9.45
2022-08-20T17:46:16.213Z,11.25
2022-08-20T17:48:44.236Z,8.77
2022-08-20T17:51:22.383Z,9.07
2022-08-20T17:53:54.184Z,10.20
2022-08-20T17:56:27.571Z,9.10
2022-08-20T17:58:58.146Z,8.73
2022-08-20T18:01:30.492Z,7.85
2022-08-20T18:03:57.705Z,10.75
2022-08-20T18:06:30.446Z,9.45
2022-08-20T18:09:01.177Z,9.60
2022-08-20T18:11:39.579Z,9.88
2022-08-20T18:14:06.176Z,9.25
2022-08-20T18:16:49.656Z,8.57
2022-08-20T18:19:42.843Z,8.10
2022-08-20T18:22:16.648Z,8.80
2022-08-20T18:24:52.453Z,10.82
2022-08-20T18:27:20.798Z,8.65
2022-08-20T18:29:52.319Z,11.35
2022-08-20T18:32:26.302Z,6.43
2022-08-20T18:34:54.536Z,9.73
2022-08-20T18:37:25.415Z,7.55
2022-08-20T18:39:52.298Z,8.95
2022-08-20T18:42:23.610Z,10.52
2022-08-20T18:44:51.729Z,9.45
2022-08-20T18:47:29.452Z,11.20
2022-08-20T18:50:16.754Z,8.45
2022-08-20T18:52:43.781Z,9.18
2022-08-20T18:55:12.862Z,8.10
2022-08-20T18:57:52.104Z,8.07
2022-08-20T19:00:20.220Z,8.63
2022-08-20T19:02:54.699Z,7.00
2022-08-20T19:05:27.548Z,9.70
2022-08-20T19:07:55.849Z,9.70
2022-08-20T19:10:27.891Z,8.98
2022-08-20T19:12:56.918Z,9.90
2022-08-20T19:15:24.743Z,11.32
2022-08-20T19:18:08.734Z,9.13
2022-08-20T19:20:36.679Z,9.30
2022-08-20T19:23:09.008Z,13.07
2022-08-20T19:25:38.035Z,8.85
2022-08-20T19:28:14.121Z,8.77
2022-08-20T19:30:42.456Z,11.45
2022-08-20T19:33:09.980Z,9.93
2022-08-20T19:35:37.909Z,8.88
2022-08-20T19:38:06.473Z,10.27
2022-08-20T19:40:39.170Z,15.00
2022-08-20T19:43:10.946Z,16.05
2022-08-20T19:45:46.910Z,10.93
2022-08-20T19:48:52.221Z,10.80
2022-08-20T19:51:29.852Z,14.32
2022-08-20T19:53:56.651Z,10.50
2022-08-20T19:56:24.403Z,10.80
2022-08-20T19:58:58.638Z,13.68
2022-08-20T20:01:25.540Z,11.15
2022-08-20T20:03:59.908Z,10.52
2022-08-20T20:06:27.127Z,10.88
2022-08-20T20:08:56.755Z,11.38
2022-08-20T20:11:26.515Z,11.07
2022-08-20T20:13:53.149Z,14.80
2022-08-20T20:16:20.744Z,11.00
2022-08-20T20:19:03.780Z,8.55
2022-08-20T20:21:39.879Z,10.35
2022-08-20T20:24:06.504Z,9.02
2022-08-20T20:26:37.422Z,11.60
2022-08-20T20:29:21.035Z,8.93
2022-08-20T20:31:50.980Z,9.98
2022-08-20T20:34:23.276Z,9.43
2022-08-20T20:36:59.927Z,8.43
2022-08-20T20:39:29.239Z,8.85
2022-08-20T20:41:57.621Z,12.02
2022-08-20T20:44:37.079Z,7.93
2022-08-20T20:47:06.664Z,8.38
2022-08-20T20:49:37.026Z,9.50
2022-08-20T20:52:05.278Z,8.05
2022-08-20T20:54:43.681Z,10.85
2022-08-20T20:57:19.466Z,7.88
2022-08-20T21:00:00.851Z,16.08
2022-08-20T21:02:27.522Z,8.77
2022-08-20T21:04:54.103Z,9.48
2022-08-20T21:07:22.853Z,9.60
2022-08-20T21:09:52.771Z,8.60
2022-08-20T21:12:19.607Z,8.13
2022-08-20T21:14:46.218Z,9.40
2022-08-20T21:17:14.941Z,9.45
2022-08-20T21:19:45.170Z,7.28
2022-08-20T21:22:12.043Z,9.48
2022-08-20T21:24:38.645Z,6.95
2022-08-20T21:27:05.195Z,7.32
2022-08-20T21:29:32.910Z,8.27
2022-08-20T21:31:59.628Z,8.05
2022-08-20T21:34:26.275Z,7.97
2022-08-20T21:36:52.860Z,8.00
2022-08-20T21:39:21.244Z,8.27
2022-08-20T21:41:48.081Z,9.68
2022-08-20T21:44:25.013Z,7.43
2022-08-20T21:46:52.412Z,7.50
2022-08-20T21:49:22.559Z,7.65
2022-08-20T21:51:50.578Z,7.18
2022-08-20T21:54:17.247Z,7.63
2022-08-20T21:56:45.787Z,7.05
2022-08-20T21:59:12.371Z,7.25
2022-08-20T22:01:39.448Z,8.70
2022-08-20T22:04:06.693Z,9.18
2022-08-20T22:06:33.278Z,6.90
2022-08-20T22:09:00.093Z,6.70
2022-08-20T22:11:26.698Z,10.38
2022-08-20T22:13:53.258Z,8.90
2022-08-20T22:16:20.596Z,8.88
2022-08-20T22:18:47.930Z,8.48
2022-08-20T22:21:19.290Z,7.88
2022-08-20T22:23:46.238Z,8.30
2022-08-20T22:26:12.952Z,8.77
2022-08-20T22:28:39.846Z,6.93
2022-08-20T22:31:06.486Z,7.78
2022-08-20T22:33:34.023Z,10.02
2022-08-20T22:36:02.330Z,7.60
2022-08-20T22:38:29.382Z,8.07
2022-08-20T22:40:55.923Z,7.90
2022-08-20T22:43:23.246Z,13.50
2022-08-20T22:45:50.969Z,8.80
2022-08-20T22:48:18.849Z,8.73
2022-08-20T22:50:47.626Z,8.15
2022-08-20T22:53:17.203Z,8.82
2022-08-20T22:55:44.005Z,8.82
2022-08-20T22:58:12.034Z,10.60
2022-08-20T23:00:39.357Z,10.48
2022-08-20T23:03:07.071Z,12.80
2022-08-20T23:05:35.420Z,10.35
2022-08-20T23:08:02.595Z,8.15
2022-08-20T23:10:30.338Z,6.95
2022-08-20T23:12:57.459Z,6.60
2022-08-20T23:15:25.071Z,11.05
2022-08-20T23:17:52.435Z,9.63
2022-08-20T23:20:19.375Z,8.95
2022-08-20T23:22:45.891Z,8.25
2022-08-20T23:25:12.713Z,10.75
2022-08-20T23:27:45.954Z,9.77
2022-08-20T23:30:13.550Z,10.10
2022-08-20T23:32:40.136Z,11.05
2022-08-20T23:35:06.996Z,15.18
2022-08-20T23:37:37.061Z,10.70
2022-08-20T23:40:04.744Z,10.02
2022-08-20T23:42:31.313Z,10.20
2022-08-20T23:44:57.817Z,11.07
2022-08-20T23:47:24.649Z,11.15
2022-08-20T23:49:51.311Z,9.90
2022-08-20T23:52:18.330Z,12.30
2022-08-20T23:54:44.844Z,9.80
2022-08-20T23:57:11.382Z,11.27
2022-08-20T23:59:38.003Z,9.20
